Keyser, Indiana
Current Conditions -  °F | °C
As of 8:55 AM on Monday 24 Nov 2014 (Local Time) from KGWB Reporting Station
Scattered Clouds Scattered Clouds  
Wind Chill: 54°   Ceiling: Unl
Heat Index: 54°   Visibility: 10mi
Dew Point: 48°   Wind: 9mph
Humidity: 82%   Direction: 200°SSW
Pressure: 29.13"   Gusts: 17mph
Location:  41.3275°N, 85.1414°W
Report Text: KGWB 241355Z AUTO 20008G15KT 10SM SCT029 SCT060 SCT075 12/09 A2913 RMK AO2 P0001
Loading
Personal Weather Stations






























Interactive Weather Map New forecast layout! Learn more

10-Day Weather Forecast

Advertisements
Track Severe Weather on mobile